Home > Products > Valid Products > TAF

000
FTUS43 KABR 231327 AAA
TAFMBG
TAF AMD
KMBG 231327Z 2313/2412 10009KT P6SM OVC025
     FM240300 08008KT P6SM OVC015
     FM240500 09010KT 6SM -SHRA BKN011 OVC030=



000
FTUS43 KABR 231136
TAFATY
TAF
KATY 231136Z 2312/2412 VRB06KT P6SM VCSH SCT080 OVC120
      TEMPO 2312/2314 -SHRA SCT050 BKN080
     FM231400 16009KT P6SM SCT050 BKN070
     FM232100 14009KT P6SM BKN035 OVC050
     FM240200 11006KT P6SM OVC015=



000
FTUS43 KABR 231136
TAFPIR
TAF
KPIR 231136Z 2312/2412 12006KT P6SM VCSH OVC022
     FM231700 13011KT P6SM SCT022 BKN040 OVC100
     FM240100 09009KT 6SM BR VCSH BKN008 OVC050
     FM240400 08012KT 4SM -SHRA SCT009 BKN014 OVC035=



000
FTUS43 KABR 231136
TAFMBG
TAF
KMBG 231136Z 2312/2412 10009KT P6SM OVC080
     FM231400 14009KT P6SM BKN040 BKN080
     FM231900 12010KT P6SM BKN030 OVC050
     FM240300 08008KT P6SM OVC015
     FM240500 09010KT 6SM -SHRA BKN011 OVC030=



000
FTUS43 KABR 231136
TAFABR
TAF
KABR 231136Z 2312/2412 VRB06KT P6SM OVC100
     FM231600 14010KT P6SM VCSH FEW040 BKN060 OVC080
     FM232100 13009KT P6SM BKN040
     FM240200 09007KT P6SM SCT020 OVC040
     FM240700 08007KT P6SM -SHRA BKN015 OVC050=



000
FTUS43 KABR 231136
TAFMBG
TAF
KMBG 231136Z 2312/2412 10009KT P6SM OVC080
     FM231400 14009KT P6SM BKN040 BKN080
     FM231900 12010KT P6SM BKN030 OVC050
     FM240300 08008KT P6SM OVC015
     FM240500 09010KT 6SM -SHRA BKN011 OVC030=



000
FTUS43 KABR 231136
TAFABR
TAF
KABR 231136Z 2312/2412 VRB06KT P6SM OVC100
     FM231600 14010KT P6SM VCSH FEW040 BKN060 OVC080
     FM232100 13009KT P6SM BKN040
     FM240200 09007KT P6SM SCT020 OVC040
     FM240700 08007KT P6SM -SHRA BKN015 OVC050=



000
FTUS43 KABR 231136
TAFATY
TAF
KATY 231136Z 2312/2412 VRB06KT P6SM VCSH SCT080 OVC120
      TEMPO 2312/2314 -SHRA SCT050 BKN080
     FM231400 16009KT P6SM SCT050 BKN070
     FM232100 14009KT P6SM BKN035 OVC050
     FM240200 11006KT P6SM OVC015=



000
FTUS43 KABR 231136
TAFPIR
TAF
KPIR 231136Z 2312/2412 12006KT P6SM VCSH OVC022
     FM231700 13011KT P6SM SCT022 BKN040 OVC100
     FM240100 09009KT 6SM BR VCSH BKN008 OVC050
     FM240400 08012KT 4SM -SHRA SCT009 BKN014 OVC035=



000
FTUS43 KABR 231018 AAB
TAFPIR
TAF AMD
KPIR 231018Z 2310/2406 12009KT P6SM OVC020
      TEMPO 2310/2312 SCT020 BKN060
     FM240200 09009KT 5SM BR VCSH BKN008 OVC050=



000
FTUS43 KABR 231018 AAB
TAFPIR
TAF AMD
KPIR 231018Z 2310/2406 12009KT P6SM OVC020
      TEMPO 2310/2312 SCT020 BKN060
     FM240200 09009KT 5SM BR VCSH BKN008 OVC050=



000
FTUS43 KABR 231016 AAB
TAFATY
TAF AMD
KATY 231016Z 2310/2406 VRB06KT P6SM VCSH SCT070 BKN090
      TEMPO 2310/2312 -RA
     FM231400 16009KT P6SM SCT050 BKN070
     FM240200 12006KT P6SM OVC040=



000
FTUS43 KABR 230811 AAA
TAFPIR
TAF AMD
KPIR 230811Z 2308/2406 15007KT P6SM FEW030 BKN045 OVC090
     FM231100 12009KT P6SM OVC025
     FM240200 09009KT 5SM BR VCSH BKN008 OVC050=



000
FTUS43 KABR 230811 AAA
TAFATY
TAF AMD
KATY 230811Z 2308/2406 VRB06KT P6SM VCSH SCT070 BKN090
     FM231400 16009KT P6SM SCT050 BKN070
     FM240200 12006KT P6SM OVC040=



000
FTUS43 KABR 230811 AAA
TAFABR
TAF AMD
KABR 230811Z 2308/2406 18006KT P6SM FEW080 BKN110
     FM231500 14007KT P6SM BKN060
     FM240100 09007KT P6SM BKN040=



000
FTUS43 KABR 230811 AAA
TAFMBG
TAF AMD
KMBG 230811Z 2308/2406 11006KT P6SM BKN090
     FM231400 14009KT P6SM BKN040 BKN080
     FM231900 12010KT P6SM BKN030 OVC050
     FM240200 08008KT P6SM OVC015=



000
FTUS43 KABR 230520
TAFATY
TAF
KATY 230520Z 2306/2406 23010KT P6SM SCT090 BKN200
     FM230900 15003KT P6SM BKN090
     FM231800 15011KT P6SM OVC050=



000
FTUS43 KABR 230520
TAFPIR
TAF
KPIR 230520Z 2306/2406 16010KT P6SM SCT060 BKN200
     FM231700 12010KT P6SM VCSH OVC020
     FM240000 12013KT 6SM BR VCSH OVC007=



000
FTUS43 KABR 230520
TAFATY
TAF
KATY 230520Z 2306/2406 23010KT P6SM SCT090 BKN200
     FM230900 15003KT P6SM BKN090
     FM231800 15011KT P6SM OVC050=



000
FTUS43 KABR 230520
TAFMBG
TAF
KMBG 230520Z 2306/2406 19009KT P6SM SCT090 BKN200
     FM231200 10005KT P6SM OVC050
     FM231800 13011KT P6SM VCSH OVC020=



000
FTUS43 KABR 230520
TAFMBG
TAF
KMBG 230520Z 2306/2406 19009KT P6SM SCT090 BKN200
     FM231200 10005KT P6SM OVC050
     FM231800 13011KT P6SM VCSH OVC020=



000
FTUS43 KABR 230520
TAFABR
TAF
KABR 230520Z 2306/2406 21011KT P6SM SCT090 BKN200
     FM231500 14007KT P6SM BKN060
     FM231800 15012KT P6SM BKN040=



000
FTUS43 KABR 230520
TAFABR
TAF
KABR 230520Z 2306/2406 21011KT P6SM SCT090 BKN200
     FM231500 14007KT P6SM BKN060
     FM231800 15012KT P6SM BKN040=



000
FTUS43 KABR 230520
TAFPIR
TAF
KPIR 230520Z 2306/2406 16010KT P6SM SCT060 BKN200
     FM231700 12010KT P6SM VCSH OVC020
     FM240000 12013KT 6SM BR VCSH OVC007=



000
FTUS43 KABR 222330
TAFPIR
TAF
KPIR 222330Z 2300/2324 17017KT P6SM SCT070 BKN200
     FM230900 12008KT P6SM VCSH OVC025
     FM231200 12010KT P6SM VCSH OVC010=



000
FTUS43 KABR 222330
TAFABR
TAF
KABR 222330Z 2300/2324 16007KT P6SM SCT100 BKN200
     FM231200 15005KT P6SM VCSH OVC050
     FM231600 14012KT P6SM VCSH BKN025=



000
FTUS43 KABR 222330
TAFATY
TAF
KATY 222330Z 2300/2324 13006KT P6SM BKN100 PROB30 2309/2312 P6SM
      -RA
     FM231200 15005KT P6SM VCSH OVC050
     FM231600 16008KT P6SM VCSH OVC035=



000
FTUS43 KABR 222330
TAFPIR
TAF
KPIR 222330Z 2300/2324 17017KT P6SM SCT070 BKN200
     FM230900 12008KT P6SM VCSH OVC025
     FM231200 12010KT P6SM VCSH OVC010=



000
FTUS43 KABR 222330
TAFABR
TAF
KABR 222330Z 2300/2324 16007KT P6SM SCT100 BKN200
     FM231200 15005KT P6SM VCSH OVC050
     FM231600 14012KT P6SM VCSH BKN025=



000
FTUS43 KABR 222330
TAFMBG
TAF
KMBG 222330Z 2300/2324 17018KT P6SM FEW090 BKN200
     FM230300 15009KT P6SM OVC250
     FM231200 12010KT P6SM VCSH OVC015=



000
FTUS43 KABR 222330
TAFMBG
TAF
KMBG 222330Z 2300/2324 17018KT P6SM FEW090 BKN200
     FM230300 15009KT P6SM OVC250
     FM231200 12010KT P6SM VCSH OVC015=



000
FTUS43 KABR 222330
TAFATY
TAF
KATY 222330Z 2300/2324 13006KT P6SM BKN100 PROB30 2309/2312 P6SM
      -RA
     FM231200 15005KT P6SM VCSH OVC050
     FM231600 16008KT P6SM VCSH OVC035=



000
FTUS43 KABR 221858 AAA
TAFABR
TAF AMD
KABR 221858Z 2219/2318 20012G18KT P6SM BKN090
     FM230100 15008KT P6SM BKN100
     FM231400 14007KT P6SM VCSH OVC050=



000
FTUS43 KABR 221858 AAA
TAFMBG
TAF AMD
KMBG 221858Z 2219/2318 14017G21KT P6SM FEW090
     FM230300 14009KT P6SM OVC070
     FM231200 12009KT P6SM VCSH OVC035
     FM231500 13010KT 5SM -SHRA BR OVC025=



000
FTUS43 KABR 221858 AAA
TAFABR
TAF AMD
KABR 221858Z 2219/2318 20012G18KT P6SM BKN090
     FM230100 15008KT P6SM BKN100
     FM231400 14007KT P6SM VCSH OVC050=



000
FTUS43 KABR 221858 AAA
TAFMBG
TAF AMD
KMBG 221858Z 2219/2318 14017G21KT P6SM FEW090
     FM230300 14009KT P6SM OVC070
     FM231200 12009KT P6SM VCSH OVC035
     FM231500 13010KT 5SM -SHRA BR OVC025=



000
FTUS43 KABR 221733
TAFABR
TAF
KABR 221733Z 2218/2318 11006KT P6SM SKC
     FM230100 15008KT P6SM BKN100
     FM231400 14007KT P6SM VCSH OVC050=



000
FTUS43 KABR 221733
TAFATY
TAF
KATY 221733Z 2218/2318 VRB03KT P6SM SKC
     FM230200 17005KT P6SM BKN090
     FM231300 16007KT P6SM VCSH OVC050=



000
FTUS43 KABR 221733
TAFPIR
TAF
KPIR 221733Z 2218/2318 14014G22KT P6SM SKC
     FM230200 15008KT P6SM OVC080
     FM230900 13008KT P6SM VCSH OVC035
     FM231300 12010KT 4SM -SHRA BR OVC020=



000
FTUS43 KABR 221733
TAFMBG
TAF
KMBG 221733Z 2218/2318 16012G19KT P6SM SKC
     FM230300 14009KT P6SM OVC070
     FM231200 12009KT P6SM VCSH OVC035
     FM231500 13010KT 5SM -SHRA BR OVC025=



000
FTUS43 KABR 221128
TAFABR
TAF
KABR 221128Z 2212/2312 12006KT P6SM SKC
     FM222200 15010KT P6SM FEW060 BKN100=



000
FTUS43 KABR 221128
TAFABR
TAF
KABR 221128Z 2212/2312 12006KT P6SM SKC
     FM222200 15010KT P6SM FEW060 BKN100=



000
FTUS43 KABR 221128
TAFMBG
TAF
KMBG 221128Z 2212/2312 12006KT P6SM SKC
     FM221800 14012G20KT P6SM FEW080 BKN120
     FM230000 13009KT P6SM FEW040 BKN060 OVC100=



000
FTUS43 KABR 221128
TAFATY
TAF
KATY 221128Z 2212/2312 14006KT P6SM SKC
     FM222100 17007KT P6SM FEW050 BKN090
     FM230900 17006KT P6SM VCSH SCT035 BKN050 OVC070=



000
FTUS43 KABR 221128
TAFPIR
TAF
KPIR 221128Z 2212/2312 12006KT P6SM BKN250
     FM221800 14015G23KT P6SM SCT060 BKN100
     FM230200 12008KT P6SM VCSH FEW020 BKN040 OVC060=



000
FTUS43 KABR 221128
TAFATY
TAF
KATY 221128Z 2212/2312 14006KT P6SM SKC
     FM222100 17007KT P6SM FEW050 BKN090
     FM230900 17006KT P6SM VCSH SCT035 BKN050 OVC070=



000
FTUS43 KABR 221128
TAFPIR
TAF
KPIR 221128Z 2212/2312 12006KT P6SM BKN250
     FM221800 14015G23KT P6SM SCT060 BKN100
     FM230200 12008KT P6SM VCSH FEW020 BKN040 OVC060=



000
FTUS43 KABR 221128
TAFMBG
TAF
KMBG 221128Z 2212/2312 12006KT P6SM SKC
     FM221800 14012G20KT P6SM FEW080 BKN120
     FM230000 13009KT P6SM FEW040 BKN060 OVC100=



000
FTUS43 KABR 220520
TAFATY
TAF
KATY 220520Z 2206/2306 VRB05KT P6SM SKC
     FM221800 16007KT P6SM SCT090=



000
FTUS43 KABR 220520
TAFABR
TAF
KABR 220520Z 2206/2306 VRB05KT P6SM SKC
     FM221800 14007KT P6SM SCT100=



000
FTUS43 KABR 220520
TAFMBG
TAF
KMBG 220520Z 2206/2306 VRB05KT P6SM SCT100
     FM221800 14012G20KT P6SM SCT250
     FM230000 13009KT P6SM BKN100=



000
FTUS43 KABR 220520
TAFABR
TAF
KABR 220520Z 2206/2306 VRB05KT P6SM SKC
     FM221800 14007KT P6SM SCT100=



000
FTUS43 KABR 220520
TAFMBG
TAF
KMBG 220520Z 2206/2306 VRB05KT P6SM SCT100
     FM221800 14012G20KT P6SM SCT250
     FM230000 13009KT P6SM BKN100=



000
FTUS43 KABR 220520
TAFPIR
TAF
KPIR 220520Z 2206/2306 VRB05KT P6SM SKC
     FM221800 13015G23KT P6SM FEW250
     FM230300 14009KT P6SM VCSH OVC050=



000
FTUS43 KABR 220520
TAFPIR
TAF
KPIR 220520Z 2206/2306 VRB05KT P6SM SKC
     FM221800 13015G23KT P6SM FEW250
     FM230300 14009KT P6SM VCSH OVC050=



000
FTUS43 KABR 220520
TAFATY
TAF
KATY 220520Z 2206/2306 VRB05KT P6SM SKC
     FM221800 16007KT P6SM SCT090=



000
FTUS43 KABR 220427 AAA
TAFPIR
TAF AMD
KPIR 220427Z 2204/2224 21005KT P6SM SKC
     FM221800 13015KT P6SM FEW250=



000
FTUS43 KABR 220427 AAA
TAFATY
TAF AMD
KATY 220427Z 2204/2224 00000KT P6SM SKC
     FM221800 16005KT P6SM SKC=



000
FTUS43 KABR 220427 AAA
TAFMBG
TAF AMD
KMBG 220427Z 2204/2224 VRB05KT P6SM FEW100
     FM221800 14013KT P6SM FEW250=



000
FTUS43 KABR 220426 AAA
TAFABR
TAF AMD
KABR 220426Z 2204/2224 05004KT P6SM SKC
     FM221800 14007KT P6SM SKC=



000
FTUS43 KABR 212330
TAFATY
TAF
KATY 212330Z 2200/2224 36011KT P6SM FEW090
     FM220300 VRB05KT P6SM SKC
     FM221800 16005KT P6SM SKC=



000
FTUS43 KABR 212330
TAFMBG
TAF
KMBG 212330Z 2200/2224 VRB06KT P6SM SCT100
     FM221800 14013KT P6SM FEW250=



000
FTUS43 KABR 212330
TAFPIR
TAF
KPIR 212330Z 2200/2224 VRB05KT P6SM FEW100
     FM221800 13015KT P6SM FEW250=



000
FTUS43 KABR 212330
TAFABR
TAF
KABR 212330Z 2200/2224 VRB05KT P6SM FEW100
     FM221800 14007KT P6SM SKC=



000
FTUS43 KABR 212330
TAFPIR
TAF
KPIR 212330Z 2200/2224 VRB05KT P6SM FEW100
     FM221800 13015KT P6SM FEW250=



000
FTUS43 KABR 212330
TAFABR
TAF
KABR 212330Z 2200/2224 VRB05KT P6SM FEW100
     FM221800 14007KT P6SM SKC=



000
FTUS43 KABR 212330
TAFATY
TAF
KATY 212330Z 2200/2224 36011KT P6SM FEW090
     FM220300 VRB05KT P6SM SKC
     FM221800 16005KT P6SM SKC=



000
FTUS43 KABR 212330
TAFMBG
TAF
KMBG 212330Z 2200/2224 VRB06KT P6SM SCT100
     FM221800 14013KT P6SM FEW250=



000
FTUS43 KABR 212211 AAA
TAFATY
TAF AMD
KATY 212211Z 2122/2218 36011KT P6SM SKC
     FM220200 VRB05KT P6SM SKC=



000
FTUS43 KABR 212211 AAA
TAFATY
TAF AMD
KATY 212211Z 2122/2218 36011KT P6SM SKC
     FM220200 VRB05KT P6SM SKC=



000
FTUS43 KABR 211731
TAFPIR
TAF
KPIR 211731Z 2118/2218 29008KT P6SM SKC
     FM220200 VRB05KT P6SM SKC
     FM221600 14014G20KT P6SM SKC=



000
FTUS43 KABR 211731
TAFMBG
TAF
KMBG 211731Z 2118/2218 30008KT P6SM SKC
     FM220200 VRB05KT P6SM SKC
     FM221600 15011KT P6SM SKC=



000
FTUS43 KABR 211731
TAFABR
TAF
KABR 211731Z 2118/2218 32010KT P6SM SKC
     FM220200 VRB05KT P6SM SKC
     FM221600 15006KT P6SM SKC=



000
FTUS43 KABR 211731
TAFATY
TAF
KATY 211731Z 2118/2218 32013KT P6SM SKC
     FM220200 VRB05KT P6SM SKC=



000
FTUS43 KABR 211124
TAFABR
TAF
KABR 211124Z 2112/2212 31009KT P6SM SKC
     FM220200 VRB05KT P6SM SKC=



000
FTUS43 KABR 211124
TAFATY
TAF
KATY 211124Z 2112/2212 31012KT P6SM SKC
     FM220200 VRB05KT P6SM SKC=



000
FTUS43 KABR 211124
TAFPIR
TAF
KPIR 211124Z 2112/2212 28008KT P6SM SKC
     FM220200 VRB05KT P6SM SKC=



000
FTUS43 KABR 211124
TAFMBG
TAF
KMBG 211124Z 2112/2212 30007KT P6SM SKC
     FM220200 VRB05KT P6SM SKC=



000
FTUS43 KABR 211124
TAFPIR
TAF
KPIR 211124Z 2112/2212 28008KT P6SM SKC
     FM220200 VRB05KT P6SM SKC=



000
FTUS43 KABR 211124
TAFABR
TAF
KABR 211124Z 2112/2212 31009KT P6SM SKC
     FM220200 VRB05KT P6SM SKC=



000
FTUS43 KABR 211124
TAFATY
TAF
KATY 211124Z 2112/2212 31012KT P6SM SKC
     FM220200 VRB05KT P6SM SKC=



000
FTUS43 KABR 211124
TAFMBG
TAF
KMBG 211124Z 2112/2212 30007KT P6SM SKC
     FM220200 VRB05KT P6SM SKC=



000
FTUS43 KABR 210526
TAFPIR
TAF
KPIR 210526Z 2106/2206 26006KT P6SM SKC
     FM220000 15004KT P6SM SKC=



000
FTUS43 KABR 210526
TAFATY
TAF
KATY 210526Z 2106/2206 26009KT P6SM SKC
     FM211500 32013KT P6SM SKC=



000
FTUS43 KABR 210526
TAFABR
TAF
KABR 210526Z 2106/2206 28008KT P6SM SKC
     FM212100 35010KT P6SM SKC=



000
FTUS43 KABR 210526
TAFMBG
TAF
KMBG 210526Z 2106/2206 VRB03KT P6SM SKC
     FM220000 05005KT P6SM FEW250=



000
FTUS43 KABR 210526
TAFPIR
TAF
KPIR 210526Z 2106/2206 26006KT P6SM SKC
     FM220000 15004KT P6SM SKC=



000
FTUS43 KABR 210526
TAFATY
TAF
KATY 210526Z 2106/2206 26009KT P6SM SKC
     FM211500 32013KT P6SM SKC=



000
FTUS43 KABR 210526
TAFABR
TAF
KABR 210526Z 2106/2206 28008KT P6SM SKC
     FM212100 35010KT P6SM SKC=



000
FTUS43 KABR 210526
TAFMBG
TAF
KMBG 210526Z 2106/2206 VRB03KT P6SM SKC
     FM220000 05005KT P6SM FEW250=



000
FTUS43 KABR 202327
TAFATY
TAF
KATY 202327Z 2100/2124 30009KT P6SM FEW070
     FM211200 32011KT P6SM FEW250=



000
FTUS43 KABR 202327
TAFATY
TAF
KATY 202327Z 2100/2124 30009KT P6SM FEW070
     FM211200 32011KT P6SM FEW250=



000
FTUS43 KABR 202327
TAFMBG
TAF
KMBG 202327Z 2100/2124 29007KT P6SM SKC=



000
FTUS43 KABR 202327
TAFABR
TAF
KABR 202327Z 2100/2124 30007KT P6SM FEW080=



000
FTUS43 KABR 202327
TAFPIR
TAF
KPIR 202327Z 2100/2124 29008KT P6SM SKC=



000
FTUS43 KABR 202327
TAFMBG
TAF
KMBG 202327Z 2100/2124 29007KT P6SM SKC=



000
FTUS43 KABR 202327
TAFABR
TAF
KABR 202327Z 2100/2124 30007KT P6SM FEW080=



000
FTUS43 KABR 202327
TAFPIR
TAF
KPIR 202327Z 2100/2124 29008KT P6SM SKC=



000
FTUS43 KABR 201728
TAFPIR
TAF
KPIR 201728Z 2018/2118 32005KT P6SM SCT040 BKN150
     FM202000 34006KT P6SM SKC
     FM210100 VRB03KT P6SM SKC=



000
FTUS43 KABR 201728
TAFMBG
TAF
KMBG 201728Z 2018/2118 30007KT P6SM SKC
     FM210100 VRB03KT P6SM SKC=



000
FTUS43 KABR 201728
TAFABR
TAF
KABR 201728Z 2018/2118 32007KT P6SM FEW070
     FM210100 26005KT P6SM SKC
     FM211500 31013KT P6SM SKC=



000
FTUS43 KABR 201728
TAFATY
TAF
KATY 201728Z 2018/2118 33010KT P6SM BKN200
     FM210100 27006KT P6SM SKC
     FM211500 32014KT P6SM SKC=



000
FTUS43 KABR 201728
TAFPIR
TAF
KPIR 201728Z 2018/2118 32005KT P6SM SCT040 BKN150
     FM202000 34006KT P6SM SKC
     FM210100 VRB03KT P6SM SKC=



000
FTUS43 KABR 201728
TAFMBG
TAF
KMBG 201728Z 2018/2118 30007KT P6SM SKC
     FM210100 VRB03KT P6SM SKC=



000
FTUS43 KABR 201728
TAFATY
TAF
KATY 201728Z 2018/2118 33010KT P6SM BKN200
     FM210100 27006KT P6SM SKC
     FM211500 32014KT P6SM SKC=



000
FTUS43 KABR 201728
TAFABR
TAF
KABR 201728Z 2018/2118 32007KT P6SM FEW070
     FM210100 26005KT P6SM SKC
     FM211500 31013KT P6SM SKC=



000
FTUS43 KABR 201525 AAA
TAFMBG
TAF AMD
KMBG 201525Z 2015/2112 32007KT P6SM BKN200
     FM210100 VRB03KT P6SM SKC=



000
FTUS43 KABR 201524 AAA
TAFPIR
TAF AMD
KPIR 201524Z 2015/2112 32005KT P6SM BKN150
     FM210100 VRB03KT P6SM SKC=



000
FTUS43 KABR 201524 AAA
TAFPIR
TAF AMD
KPIR 201524Z 2015/2112 32005KT P6SM BKN150
     FM210100 VRB03KT P6SM SKC=



000
FTUS43 KABR 201523 AAA
TAFATY
TAF AMD
KATY 201523Z 2015/2112 30006KT P6SM BKN200
     FM210100 VRB03KT P6SM SKC=



000
FTUS43 KABR 201522 AAA
TAFABR
TAF AMD
KABR 201522Z 2015/2112 33006KT P6SM BKN200
     FM210100 VRB03KT P6SM SKC=



000
FTUS43 KABR 201522 AAA
TAFABR
TAF AMD
KABR 201522Z 2015/2112 33006KT P6SM BKN200
     FM210100 VRB03KT P6SM SKC=



    US Dept of Commerce
    National Oceanic and Atmospheric Administration
    National Weather Service
    1325 East West Highway
    Silver Spring, MD 20910
    Page Author: NWS Internet Services Team
Disclaimer
Information Quality
Credits
Glossary
Privacy Policy
Freedom of Information Act (FOIA)
About Us
Career Opportunities